Latest Weather Observations for Scone Airport

IDN60801

Issued at 11:05 pm EST Thursday 31 July 2014 (issued every 30 minutes, with the page automatically refreshed every 10 minutes)

About weather observations | Map of weather stations | Latest weather observations for NSW | Other Formats
Station Details ID: 061363 Name: SCONE AIRPORT AWS Lat: -32.03 Lon: 150.83 Height: 221.4 m
Data from the previous 72 hours. | See also: Recent months at Scone Airport
Date/Time
EST
Temp
°C
App
Temp
°C
Dew
Point
Rel
Hum
%
Delta-T
°C
Wind Press
QNH
hPa
Press
MSL
hPa
Rain
since 9 am
mm
Dir
 
Spd
km/h
Gust
km/h
Spd
kts
Gust
kts
31/11:00pm 17.2 11.3 -1.9 27 8.0 NW 19 24 10 13 1010.1 - 0.0
31/10:30pm 17.6 12.1 -2.1 26 8.3 NW 17 24 9 13 1010.3 - 0.0
31/10:00pm 18.7 12.6 -2.3 24 8.9 NW 20 32 11 17 1010.4 - 0.0
31/09:30pm 18.5 12.0 -2.4 24 8.8 NW 22 41 12 22 1010.5 - 0.0
31/09:00pm 18.8 12.9 -2.2 24 8.9 NNW 19 32 10 17 1010.3 1010.6 0.0
31/08:30pm 19.0 13.1 -2.6 23 9.1 NNW 19 28 10 15 1010.5 - 0.0
31/08:00pm 18.5 12.5 -3.0 23 8.9 NNW 19 30 10 16 1010.8 - 0.0
31/07:30pm 18.1 12.3 -1.7 26 8.4 NNW 19 41 10 22 1010.8 - 0.0
31/07:00pm 19.5 12.7 -1.6 24 9.1 NNW 24 39 13 21 1011.0 - 0.0
31/06:51pm 19.5 12.0 -1.6 24 9.1 NNW 28 46 15 25 1011.1 - 0.0
31/06:30pm 19.0 12.7 -0.9 26 8.7 NNW 22 37 12 20 1011.4 - 0.0
31/06:00pm 19.0 13.3 -0.9 26 8.7 NNW 19 28 10 15 1011.3 1011.6 0.0
31/05:30pm 18.8 13.4 -1.1 26 8.6 NNW 17 24 9 13 1011.4 - 0.0
31/05:00pm 19.8 14.5 -0.8 25 9.0 NNW 17 30 9 16 1011.3 - 0.0
31/04:30pm 20.7 15.6 0.5 26 9.2 NNW 17 26 9 14 1011.3 - 0.0
31/04:00pm 21.3 16.2 0.5 25 9.5 NW 17 28 9 15 1011.3 - 0.0
31/03:30pm 21.4 15.4 1.1 26 9.4 NNW 22 35 12 19 1011.7 - 0.0
31/03:00pm 21.8 15.8 0.9 25 9.7 NNW 22 33 12 18 1012.2 1012.4 0.0
31/02:30pm 21.5 15.0 0.1 24 9.7 NW 24 35 13 19 1012.7 - 0.0
31/02:00pm 21.2 14.4 1.0 26 9.3 NNW 26 37 14 20 1013.2 - 0.0
31/01:30pm 21.4 14.9 0.6 25 9.5 NNW 24 35 13 19 1013.8 - 0.0
31/01:00pm 21.4 15.7 0.6 25 9.5 NW 20 26 11 14 1014.3 - 0.0
31/12:30pm 20.9 14.5 1.2 27 9.1 NW 24 39 13 21 1015.1 - 0.0
31/12:00pm 21.3 14.6 1.6 27 9.2 NW 26 37 14 20 1015.7 1016.0 0.0
31/11:30am 20.5 14.9 0.9 27 9.0 WNW 20 28 11 15 1016.4 - 0.0
31/11:00am 19.9 12.7 0.9 28 8.6 NW 28 35 15 19 1017.2 - 0.0
31/10:30am 19.9 13.6 1.4 29 8.5 NW 24 32 13 17 1017.6 - 0.0
31/10:00am 19.3 13.3 0.8 29 8.4 NW 22 32 12 17 1017.8 - 0.0
31/09:30am 18.6 10.9 -0.2 28 8.3 NW 30 43 16 23 1017.9 - 0.0
31/09:29am 18.6 11.4 0.7 30 8.0 NW 28 43 15 23 1017.9 - 0.0
31/09:00am 17.6 13.1 4.2 41 6.4 NW 17 22 9 12 1018.3 1018.6 0.0
31/08:30am 15.1 12.2 4.8 50 4.9 N 9 13 5 7 1018.4 - 0.0
31/08:00am 13.7 11.2 4.6 54 4.2 NNW 7 11 4 6 1018.3 - 0.0
31/07:30am 8.4 5.2 2.8 68 2.4 N 9 13 5 7 1018.2 - 0.0
31/07:00am 7.9 4.5 2.0 66 2.5 N 9 13 5 7 1017.9 - 0.0
31/06:30am 6.1 3.3 1.8 74 1.8 NW 6 9 3 5 1017.9 - 0.0
31/06:00am 6.9 3.9 1.8 70 2.1 N 7 11 4 6 1017.8 1018.1 0.0
31/05:30am 8.1 4.4 2.4 67 2.4 N 11 13 6 7 1017.6 - 0.0
31/05:00am 7.6 4.0 3.1 73 1.9 NNE 11 15 6 8 1017.5 - 0.0
31/04:30am 6.7 3.4 2.2 73 1.9 N 9 11 5 6 1017.4 - 0.0
31/04:00am 5.1 1.8 2.3 82 1.1 N 9 11 5 6 1017.7 - 0.0
31/03:30am 5.6 2.8 3.1 84 1.0 N 7 11 4 6 1017.8 - 0.0
31/03:00am 4.6 1.3 2.3 85 0.9 NNW 9 13 5 7 1017.9 1018.2 0.0
31/02:30am 5.3 2.8 3.8 90 0.6 N 6 9 3 5 1018.2 - 0.0
31/02:00am 4.2 1.6 3.0 92 0.5 N 6 7 3 4 1018.3 - 0.0
31/01:30am 3.7 2.1 2.2 90 0.6 CALM 0 0 0 0 1018.4 - 0.0
31/01:00am 4.3 2.7 2.7 89 0.7 CALM 0 4 0 2 1018.5 - 0.0
31/12:30am 4.7 3.2 3.0 89 0.7 CALM 0 0 0 0 1018.8 - 0.0
31/12:00am 5.2 3.8 3.5 89 0.7 W 0 0 0 0 1019.1 1019.4 0.0
 
Date/Time
EST
Temp
°C
App
Temp
°C
Dew
Point
Rel
Hum
%
Delta-T
°C
Wind Press
QNH
hPa
Press
MSL
hPa
Rain
since 9 am
mm
Dir
 
Spd
km/h
Gust
km/h
Spd
kts
Gust
kts
30/11:30pm 5.4 4.0 3.3 86 0.9 CALM 0 0 0 0 1019.3 - 0.0
30/11:00pm 5.8 3.3 3.5 85 1.0 WSW 6 9 3 5 1019.4 - 0.0
30/10:30pm 6.4 5.0 3.7 83 1.2 CALM 0 0 0 0 1019.4 - 0.0
30/10:00pm 7.3 5.7 4.3 81 1.3 N 2 7 1 4 1019.5 - 0.0
30/09:30pm 7.0 5.6 3.8 80 1.4 CALM 0 7 0 4 1019.6 - 0.0
30/09:00pm 8.3 5.3 3.9 74 1.9 NNE 9 11 5 6 1019.6 1019.9 0.0
30/08:30pm 8.2 6.9 3.9 74 1.9 CALM 0 6 0 3 1019.5 - 0.0
30/08:00pm 8.7 6.0 3.9 72 2.1 N 7 9 4 5 1019.4 - 0.0
30/07:30pm 9.5 5.8 4.7 72 2.2 WNW 13 15 7 8 1019.4 - 0.0
30/07:00pm 11.1 8.4 3.9 61 3.2 WNW 7 13 4 7 1019.0 - 0.0
30/06:30pm 13.1 10.0 3.7 53 4.3 NW 9 11 5 6 1018.8 - 0.0
30/06:00pm 15.9 13.2 3.7 44 5.7 N 7 11 4 6 1018.5 1018.8 0.0
30/05:30pm 16.7 13.6 3.7 42 6.1 N 9 11 5 6 1018.3 - 0.0
30/05:00pm 18.2 13.9 3.3 37 7.0 NNW 15 20 8 11 1017.9 - 0.0
30/04:30pm 19.2 14.9 3.4 35 7.5 NNW 15 22 8 12 1018.1 - 0.0
30/04:00pm 19.7 14.7 3.4 34 7.8 NNW 19 26 10 14 1018.2 - 0.0
30/03:30pm 20.5 15.6 4.1 34 8.0 NNW 19 30 10 16 1018.3 - 0.0
30/03:00pm 20.6 15.5 3.3 32 8.3 NNW 19 26 10 14 1018.5 1018.8 0.0
30/02:30pm 20.7 15.5 3.4 32 8.3 NNW 20 28 11 15 1018.4 - 0.0
30/02:00pm 20.7 16.4 3.0 31 8.4 NW 15 22 8 12 1018.6 - 0.0
30/01:30pm 20.5 16.2 3.3 32 8.2 NW 15 24 8 13 1018.6 - 0.0
30/01:00pm 20.2 15.5 3.0 32 8.2 WNW 17 26 9 14 1018.9 - 0.0
30/12:30pm 20.2 15.5 3.0 32 8.2 NNW 17 28 9 15 1019.4 - 0.0
30/12:00pm 20.0 15.2 2.4 31 8.2 NW 17 24 9 13 1020.1 1020.4 0.0
30/11:30am 19.9 15.3 3.6 34 7.8 NW 17 24 9 13 1020.5 - 0.0
30/11:00am 19.2 14.5 3.4 35 7.5 NNW 17 24 9 13 1020.8 - 0.0
30/10:30am 18.5 13.2 1.9 33 7.6 NW 19 28 10 15 1021.4 - 0.0
30/10:00am 18.4 13.5 1.9 33 7.6 NW 17 24 9 13 1021.7 - 0.0
30/09:30am 17.6 14.4 2.8 37 6.9 NW 9 13 5 7 1022.2 - 0.0
30/09:00am 16.7 15.1 2.3 38 6.5 CALM 0 0 0 0 1022.4 1022.7 0.0
30/08:30am 15.3 13.6 1.8 40 6.0 CALM 0 0 0 0 1022.4 - 0.0
30/08:00am 12.6 10.3 3.0 52 4.3 N 4 7 2 4 1021.9 - 0.0
30/07:30am 11.5 8.2 2.5 54 3.9 NNW 9 15 5 8 1021.7 - 0.0
30/07:00am 10.2 6.3 1.1 53 3.8 NNW 11 15 6 8 1021.0 - 0.0
30/06:30am 11.2 7.0 1.7 52 4.1 NNW 13 17 7 9 1020.7 - 0.0
30/06:00am 10.9 7.4 1.4 52 4.0 NW 9 13 5 7 1020.4 1020.7 0.0
30/05:30am 11.0 6.5 2.1 54 3.8 NW 15 19 8 10 1020.0 - 0.0
30/05:00am 9.8 6.3 1.5 56 3.5 N 9 13 5 7 1019.7 - 0.0
30/04:30am 7.6 4.6 0.6 61 2.8 NNW 6 9 3 5 1019.5 - 0.0
30/04:00am 10.7 7.0 2.5 57 3.6 NW 11 15 6 8 1019.4 - 0.0
30/03:30am 7.9 4.8 1.5 64 2.6 NNW 7 9 4 5 1019.3 - 0.0
30/03:00am 6.8 3.7 1.3 68 2.2 NNW 7 9 4 5 1019.3 1019.6 0.0
30/02:30am 8.5 5.7 1.9 63 2.8 N 6 7 3 4 1019.2 - 0.0
30/02:00am 8.5 5.4 1.6 62 2.9 NNE 7 9 4 5 1019.3 - 0.0
30/01:30am 8.5 5.5 2.1 64 2.7 NNE 7 11 4 6 1019.4 - 0.0
30/01:00am 10.0 6.6 1.9 57 3.4 WNW 9 11 5 6 1019.5 - 0.0
30/12:30am 10.9 7.2 2.5 56 3.7 WNW 11 15 6 8 1019.5 - 0.0
30/12:00am 10.2 6.5 2.6 59 3.3 NW 11 13 6 7 1019.7 1020.0 0.0
 
Date/Time
EST
Temp
°C
App
Temp
°C
Dew
Point
Rel
Hum
%
Delta-T
°C
Wind Press
QNH
hPa
Press
MSL
hPa
Rain
since 9 am
mm
Dir
 
Spd
km/h
Gust
km/h
Spd
kts
Gust
kts
29/11:30pm 6.6 3.9 2.9 77 1.6 NNW 6 9 3 5 1019.9 - 0.0
29/11:00pm 7.7 5.0 3.7 76 1.7 NW 7 9 4 5 1020.1 - 0.0
29/10:30pm 7.1 3.8 2.6 73 1.9 NW 9 13 5 7 1020.2 - 0.0
29/10:00pm 7.6 3.7 3.5 75 1.8 WNW 13 15 7 8 1020.2 - 0.0
29/09:30pm 6.9 5.6 3.9 81 1.3 CALM 0 6 0 3 1020.2 - 0.0
29/09:00pm 7.4 4.9 3.8 78 1.6 N 6 7 3 4 1020.2 1020.5 0.0
29/08:30pm 8.0 5.5 4.0 76 1.8 N 6 7 3 4 1020.3 - 0.0
29/08:00pm 8.1 6.5 4.3 77 1.7 N 2 9 1 5 1020.1 - 0.0
29/07:30pm 9.0 6.0 4.2 72 2.1 NW 9 13 5 7 1019.8 - 0.0
29/07:00pm 10.3 7.8 4.7 68 2.5 N 7 9 4 5 1019.7 - 0.0
29/06:30pm 13.2 10.6 4.4 55 4.1 N 7 9 4 5 1019.3 - 0.0
29/06:00pm 14.3 11.7 4.3 51 4.6 NW 7 11 4 6 1018.8 1019.1 0.0
29/05:30pm 15.6 12.3 4.6 48 5.2 N 11 17 6 9 1018.3 - 0.0
29/05:00pm 16.8 13.5 4.8 45 5.8 NNW 11 19 6 10 1018.0 - 0.0
29/04:30pm 17.7 12.8 5.0 43 6.2 NNW 20 28 11 15 1017.6 - 0.0
29/04:00pm 18.3 13.4 5.2 42 6.4 NNW 20 30 11 16 1017.9 - 0.0
29/03:30pm 18.8 14.4 4.9 40 6.8 NNW 17 26 9 14 1017.6 - 0.0
29/03:00pm 18.0 12.6 4.6 41 6.5 NNW 22 35 12 19 1017.6 1017.9 0.0
29/02:30pm 18.7 13.7 4.8 40 6.8 NW 20 28 11 15 1018.2 - 0.0
29/02:00pm 18.5 12.5 3.2 36 7.2 NNW 24 32 13 17 1018.4 - 0.0
29/01:30pm 18.9 13.3 3.5 36 7.3 NNW 22 30 12 16 1018.7 - 0.0
29/01:00pm 18.4 12.4 3.1 36 7.2 NNW 24 35 13 19 1018.7 - 0.0
29/12:30pm 19.1 12.7 3.3 35 7.5 NNW 26 37 14 20 1019.3 - 0.0
29/12:00pm 18.9 12.1 3.1 35 7.4 NW 28 37 15 20 1020.1 1020.4 0.0
29/11:30am 18.1 12.0 2.8 36 7.1 NW 24 35 13 19 1021.0 - 0.0
29/11:00am 17.5 10.7 3.0 38 6.7 NW 28 37 15 20 1021.6 - 0.0
29/10:30am 17.4 11.5 4.0 41 6.4 NW 24 35 13 19 1021.7 - 0.0
29/10:00am 16.8 11.3 4.2 43 6.0 NW 22 33 12 18 1021.8 - 0.0
29/09:30am 15.8 12.0 5.7 51 4.9 NW 15 22 8 12 1022.0 - 0.0
29/09:00am 13.1 10.8 5.5 60 3.6 NNE 7 9 4 5 1022.1 1022.4 0.0
29/08:30am 10.1 8.4 7.5 84 1.3 N 6 7 3 4 1022.1 - 0.0
29/08:00am 5.9 3.4 5.0 94 0.4 N 7 11 4 6 1022.1 - 0.0
29/07:30am 2.3 -0.7 2.2 99 0.0 NW 7 9 4 5 1022.0 - 0.0
29/07:00am 1.9 -0.9 1.8 99 0.0 W 6 7 3 4 1021.7 - 0.0
29/06:30am 2.1 -0.7 2.0 99 0.0 W 6 7 3 4 1021.3 - 0.0
29/06:00am 2.7 1.1 2.6 99 0.0 CALM 0 0 0 0 1021.0 1021.4 0.0
29/05:30am 1.8 -0.7 1.4 97 0.2 W 4 7 2 4 1020.7 - 0.0
29/05:00am 2.3 0.6 1.7 96 0.2 CALM 0 0 0 0 1020.5 - 0.0
29/04:30am 3.0 1.4 2.6 97 0.2 CALM 0 0 0 0 1020.4 - 0.0
29/04:00am 2.9 1.3 2.3 96 0.2 CALM 0 0 0 0 1020.3 - 0.0
29/03:30am 2.5 0.0 1.8 95 0.3 N 4 7 2 4 1020.2 - 0.0
29/03:00am 3.1 0.2 2.5 96 0.2 N 7 9 4 5 1020.1 1020.4 0.0
29/02:30am 3.1 0.8 2.7 97 0.2 N 4 6 2 3 1020.4 - 0.0
29/02:00am 2.9 0.1 2.2 95 0.3 NNE 6 9 3 5 1020.5 - 0.0
29/01:30am 3.9 1.7 3.6 98 0.1 N 4 11 2 6 1020.7 - 0.0
29/01:00am 3.7 2.2 3.1 96 0.2 CALM 0 0 0 0 1020.8 - 0.0
29/12:30am 3.3 0.6 2.4 94 0.4 NNE 6 9 3 5 1021.0 - 0.0
29/12:00am 4.0 2.6 3.4 96 0.2 CALM 0 0 0 0 1021.3 1021.7 0.0
 
Date/Time
EST
Temp
°C
App
Temp
°C
Dew
Point
Rel
Hum
%
Delta-T
°C
Wind Press
QNH
hPa
Press
MSL
hPa
Rain
since 9 am
mm
Dir
 
Spd
km/h
Gust
km/h
Spd
kts
Gust
kts
28/11:30pm 3.8 2.3 3.1 95 0.3 CALM 0 0 0 0 1021.4 - 0.0

Other Formats:

Comma delimited format used in spreadsheet applications
http://www.bom.gov.au/fwo/IDN60801/IDN60801.95758.axf

JavaScript Object Notation format (JSON) in row-major order
http://www.bom.gov.au/fwo/IDN60801/IDN60801.95758.json